createdAt,value
2023-02-22T06:51:48.199Z,82.78
2023-02-22T06:54:51.687Z,83.35
2023-02-22T06:57:55.107Z,83.74
2023-02-22T07:00:58.149Z,83.27
2023-02-22T07:04:01.174Z,81.39
2023-02-22T07:07:04.108Z,80.32
2023-02-22T07:10:09.519Z,79.13
2023-02-22T07:13:12.272Z,79.67
2023-02-22T07:16:15.203Z,82.14
2023-02-22T07:19:19.641Z,82.04
2023-02-22T07:22:22.834Z,83.24
2023-02-22T07:25:26.011Z,82.54
2023-02-22T07:28:28.861Z,82.85
2023-02-22T07:31:40.571Z,80.70
2023-02-22T07:34:43.454Z,80.94
2023-02-22T07:37:48.181Z,81.38
2023-02-22T07:40:51.275Z,82.02
2023-02-22T07:43:54.303Z,82.03
2023-02-22T07:46:57.213Z,82.10
2023-02-22T07:50:00.038Z,81.34
2023-02-22T07:53:07.409Z,81.35
2023-02-22T07:56:10.401Z,79.66
2023-02-22T07:59:13.681Z,81.48
2023-02-22T08:02:18.006Z,83.29
2023-02-22T08:05:23.514Z,83.96
2023-02-22T08:08:26.824Z,83.25
2023-02-22T08:11:31.480Z,83.65
2023-02-22T08:14:34.520Z,82.42
2023-02-22T08:17:39.305Z,80.72
2023-02-22T08:20:43.963Z,80.16
2023-02-22T08:23:51.745Z,80.21
2023-02-22T08:26:54.471Z,79.03
2023-02-22T08:29:57.615Z,79.37
2023-02-22T08:33:02.528Z,79.45
2023-02-22T08:36:05.742Z,80.38
2023-02-22T08:39:08.854Z,78.26
2023-02-22T08:42:12.035Z,77.72
2023-02-22T08:45:15.923Z,75.28
2023-02-22T08:48:19.846Z,74.81
2023-02-22T08:51:22.709Z,75.15
2023-02-22T08:54:26.071Z,74.70
2023-02-22T08:57:29.161Z,72.01
2023-02-22T09:00:34.069Z,70.93
2023-02-22T09:13:38.188Z,68.37
2023-02-22T09:16:41.184Z,67.50
2023-02-22T09:19:45.921Z,68.09
2023-02-22T09:22:51.302Z,70.66
2023-02-22T09:25:54.134Z,68.93
2023-02-22T09:28:56.723Z,67.92
2023-02-22T09:32:00.178Z,67.29
2023-02-22T09:35:03.562Z,66.47
2023-02-22T09:38:06.721Z,66.70
